Time;durP1;ratioP1;P1;durP2;ratioP2;P2;SDS_P1;SDS_P2;PMS_P1;PMS_P2;Temp;Humidity;BMP_temperature;BMP_pressure;BME280_temperature;BME280_humidity;BME280_pressure;Samples;Min_cycle;Max_cycle;Signal;HPM_P1;HPM_P2
2022/05/14 00:00:35;;;;;;;16.77;6.50;;;;;;;;;;5093470;28;20438;-71
2022/05/14 00:03:03;;;;;;;18.80;6.20;;;;;;;;;;5093241;28;20454;-72
2022/05/14 00:05:30;;;;;;;17.57;6.40;;;;;;;;;;5093042;28;20452;-71
2022/05/14 00:07:57;;;;;;;17.57;6.60;;;;;;;;;;5093252;28;20457;-71
2022/05/14 00:10:27;;;;;;;17.93;6.80;;;;;;;;;;5093325;28;20446;-71
2022/05/14 00:13:05;;;;;;;18.10;6.30;;;;;;;;;;5093148;28;20442;-71
2022/05/14 00:15:36;;;;;;;18.53;6.93;;;;;;;;;;5092894;28;20464;-71
2022/05/14 00:18:04;;;;;;;18.07;6.53;;;;;;;;;;5093102;28;20492;-71
2022/05/14 00:20:32;;;;;;;21.00;6.60;;;;;;;;;;5093240;28;20446;-71
2022/05/14 00:22:59;;;;;;;19.50;6.90;;;;;;;;;;5092928;28;20958;-71
2022/05/14 00:25:27;;;;;;;23.03;6.17;;;;;;;;;;5092704;28;20460;-72
2022/05/14 00:27:55;;;;;;;17.30;6.07;;;;;;;;;;5085806;28;20530;-71
2022/05/14 00:30:24;;;;;;;21.10;6.90;;;;;;;;;;5092771;28;20446;-71
2022/05/14 00:32:53;;;;;;;20.37;6.90;;;;;;;;;;5092747;28;20445;-71
2022/05/14 00:35:21;;;;;;;18.27;7.10;;;;;;;;;;5092708;28;20824;-72
2022/05/14 00:37:49;;;;;;;17.83;7.47;;;;;;;;;;5092578;28;20865;-71
2022/05/14 00:40:18;;;;;;;20.90;6.70;;;;;;;;;;5092675;28;20453;-71
2022/05/14 00:42:47;;;;;;;18.73;6.57;;;;;;;;;;5092567;28;20450;-71
2022/05/14 00:45:16;;;;;;;19.80;6.90;;;;;;;;;;5092572;28;20464;-72
2022/05/14 00:47:45;;;;;;;17.70;5.97;;;;;;;;;;5091826;28;20458;-72
2022/05/14 00:50:19;;;;;;;18.90;6.90;;;;;;;;;;5092388;28;20537;-71
2022/05/14 00:52:47;;;;;;;26.97;7.07;;;;;;;;;;5092411;28;20979;-71
2022/05/14 00:55:14;;;;;;;18.30;6.20;;;;;;;;;;5092248;28;20449;-73
2022/05/14 00:57:44;;;;;;;18.73;6.57;;;;;;;;;;5092257;28;20488;-72
2022/05/14 01:00:14;;;;;;;17.97;6.70;;;;;;;;;;5092533;28;20445;-72
2022/05/14 01:02:41;;;;;;;18.10;6.80;;;;;;;;;;5092369;28;20464;-71
2022/05/14 01:05:10;;;;;;;18.03;5.93;;;;;;;;;;5092179;28;20454;-72
2022/05/14 01:07:39;;;;;;;19.07;7.07;;;;;;;;;;5091831;28;20449;-71
2022/05/14 01:10:09;;;;;;;18.03;7.63;;;;;;;;;;5092114;28;20442;-71
2022/05/14 01:12:37;;;;;;;18.70;6.27;;;;;;;;;;5092735;28;20816;-71
2022/05/14 01:15:08;;;;;;;19.40;6.30;;;;;;;;;;5092187;28;20453;-71
2022/05/14 01:17:37;;;;;;;17.30;6.57;;;;;;;;;;5091681;28;20486;-71
2022/05/14 01:20:04;;;;;;;17.80;6.03;;;;;;;;;;5091877;28;20945;-71
2022/05/14 01:22:39;;;;;;;19.13;6.67;;;;;;;;;;5092146;28;21023;-71
2022/05/14 01:27:58;;;;;;;17.23;7.03;;;;;;;;;;5091643;28;20515;-71
2022/05/14 01:30:25;;;;;;;17.10;6.83;;;;;;;;;;5091771;28;20456;-71
2022/05/14 01:33:05;;;;;;;26.93;7.30;;;;;;;;;;5091791;28;20449;-71
2022/05/14 01:35:33;;;;;;;18.30;6.37;;;;;;;;;;5091698;28;21035;-71
2022/05/14 01:38:01;;;;;;;29.53;6.93;;;;;;;;;;5091829;28;20493;-71
2022/05/14 01:40:29;;;;;;;17.20;6.33;;;;;;;;;;5091839;28;20903;-72
2022/05/14 01:42:57;;;;;;;20.63;6.63;;;;;;;;;;5091744;28;20469;-72
2022/05/14 01:45:25;;;;;;;19.67;7.13;;;;;;;;;;5091837;28;20547;-71
2022/05/14 01:47:53;;;;;;;17.17;6.57;;;;;;;;;;5084945;28;20510;-71
2022/05/14 01:50:21;;;;;;;20.37;6.40;;;;;;;;;;5091740;28;20456;-71
2022/05/14 01:52:48;;;;;;;18.67;6.77;;;;;;;;;;5091769;28;20450;-72
2022/05/14 01:55:16;;;;;;;21.53;6.67;;;;;;;;;;5091406;28;20460;-72
2022/05/14 01:57:44;;;;;;;16.97;6.63;;;;;;;;;;5091378;28;21041;-71
2022/05/14 02:00:14;;;;;;;18.50;7.80;;;;;;;;;;5093988;28;20451;-71
2022/05/14 02:02:42;;;;;;;16.57;6.87;;;;;;;;;;5095768;28;20525;-71
2022/05/14 02:05:10;;;;;;;18.87;7.17;;;;;;;;;;5095723;28;20459;-69
2022/05/14 02:07:37;;;;;;;17.67;8.20;;;;;;;;;;5095339;28;20441;-70
2022/05/14 02:10:05;;;;;;;21.40;8.90;;;;;;;;;;5095504;28;20831;-69
2022/05/14 02:12:32;;;;;;;19.50;8.10;;;;;;;;;;5095432;28;20454;-69
2022/05/14 02:15:00;;;;;;;20.77;7.13;;;;;;;;;;5095455;28;20967;-69
2022/05/14 02:17:28;;;;;;;16.20;6.67;;;;;;;;;;5095249;28;20451;-70
2022/05/14 02:19:56;;;;;;;19.53;6.77;;;;;;;;;;5095349;28;20476;-69
2022/05/14 02:22:24;;;;;;;19.90;7.17;;;;;;;;;;5095281;28;20550;-72
2022/05/14 02:24:54;;;;;;;17.87;6.50;;;;;;;;;;5095153;28;20838;-70
2022/05/14 02:27:21;;;;;;;19.23;6.63;;;;;;;;;;5094603;28;20465;-70
2022/05/14 02:29:51;;;;;;;20.63;7.10;;;;;;;;;;5095112;28;20444;-70
2022/05/14 02:32:20;;;;;;;17.73;6.70;;;;;;;;;;5095501;28;20453;-70
2022/05/14 02:34:49;;;;;;;18.10;6.30;;;;;;;;;;5095077;28;20461;-70
2022/05/14 02:37:17;;;;;;;16.40;6.60;;;;;;;;;;5094832;28;20480;-70
2022/05/14 02:39:45;;;;;;;20.43;6.87;;;;;;;;;;5095004;28;20492;-70
2022/05/14 02:42:13;;;;;;;18.00;6.43;;;;;;;;;;5095147;28;20963;-70
2022/05/14 02:44:40;;;;;;;16.20;6.13;;;;;;;;;;5095087;28;20445;-70
2022/05/14 02:47:08;;;;;;;18.20;6.70;;;;;;;;;;5094858;28;20451;-70
2022/05/14 02:49:36;;;;;;;19.87;7.10;;;;;;;;;;5094427;28;20441;-70
2022/05/14 02:52:06;;;;;;;18.40;7.70;;;;;;;;;;5095060;28;20821;-70
2022/05/14 02:54:33;;;;;;;17.43;6.80;;;;;;;;;;5095210;28;21079;-70
2022/05/14 02:57:01;;;;;;;17.70;6.33;;;;;;;;;;5094690;28;20974;-70
2022/05/14 02:59:28;;;;;;;16.00;6.90;;;;;;;;;;5087801;28;20488;-70
2022/05/14 03:01:56;;;;;;;15.87;6.33;;;;;;;;;;5094680;28;20503;-70
2022/05/14 03:04:24;;;;;;;16.90;6.53;;;;;;;;;;5094446;28;20442;-70
2022/05/14 03:06:52;;;;;;;20.80;6.57;;;;;;;;;;5094315;28;20445;-70
2022/05/14 03:09:21;;;;;;;20.40;7.03;;;;;;;;;;5094373;28;20461;-70
2022/05/14 03:11:48;;;;;;;18.70;6.77;;;;;;;;;;5093509;28;20455;-70
2022/05/14 03:14:16;;;;;;;18.67;6.40;;;;;;;;;;5094410;28;20454;-70
2022/05/14 03:16:45;;;;;;;16.30;6.40;;;;;;;;;;5094260;28;20442;-70
2022/05/14 03:19:13;;;;;;;19.80;6.80;;;;;;;;;;5094366;28;20556;-70
2022/05/14 03:21:40;;;;;;;17.00;6.43;;;;;;;;;;5094268;28;20446;-70
2022/05/14 03:24:10;;;;;;;18.97;7.33;;;;;;;;;;5087305;28;20954;-70
2022/05/14 03:26:39;;;;;;;18.00;7.30;;;;;;;;;;5093584;28;20488;-70
2022/05/14 03:29:07;;;;;;;19.10;7.00;;;;;;;;;;5094061;28;20449;-70
2022/05/14 03:31:35;;;;;;;18.10;5.60;;;;;;;;;;5093668;28;20464;-70
2022/05/14 03:34:03;;;;;;;18.50;6.03;;;;;;;;;;5093832;28;20442;-70
2022/05/14 03:36:30;;;;;;;15.90;6.00;;;;;;;;;;5094079;28;21079;-70
2022/05/14 03:38:58;;;;;;;17.80;7.30;;;;;;;;;;5093911;28;20854;-70
2022/05/14 03:41:25;;;;;;;17.97;6.80;;;;;;;;;;5093592;28;20449;-70
2022/05/14 03:43:54;;;;;;;18.37;6.90;;;;;;;;;;5093754;28;20472;-70
2022/05/14 03:46:22;;;;;;;17.73;6.43;;;;;;;;;;5093706;28;20540;-70
2022/05/14 03:48:49;;;;;;;20.80;7.27;;;;;;;;;;5093819;28;20460;-70
2022/05/14 03:51:17;;;;;;;17.60;6.73;;;;;;;;;;5093490;28;20468;-70
2022/05/14 03:53:44;;;;;;;19.63;6.83;;;;;;;;;;5093605;28;20444;-70
2022/05/14 03:56:12;;;;;;;17.93;6.87;;;;;;;;;;5093430;28;20452;-70
2022/05/14 03:58:39;;;;;;;18.17;6.90;;;;;;;;;;5093354;28;20488;-70
2022/05/14 04:01:08;;;;;;;18.53;6.87;;;;;;;;;;5093363;28;20455;-70
2022/05/14 04:03:36;;;;;;;19.50;7.67;;;;;;;;;;5093149;28;20449;-70
2022/05/14 04:06:04;;;;;;;16.90;6.33;;;;;;;;;;5093623;28;20483;-70
2022/05/14 04:08:32;;;;;;;18.53;6.80;;;;;;;;;;5093279;28;20456;-70
2022/05/14 04:11:00;;;;;;;27.07;9.13;;;;;;;;;;5086485;28;20453;-69
2022/05/14 04:13:28;;;;;;;25.17;8.70;;;;;;;;;;5092920;28;20806;-69
2022/05/14 04:15:56;;;;;;;21.20;7.53;;;;;;;;;;5093220;28;20450;-69
2022/05/14 04:18:25;;;;;;;22.27;7.97;;;;;;;;;;5093150;28;20555;-69
2022/05/14 04:20:54;;;;;;;21.30;8.20;;;;;;;;;;5093024;28;20960;-69
2022/05/14 04:23:21;;;;;;;19.97;7.67;;;;;;;;;;5092699;28;20460;-69
2022/05/14 04:25:50;;;;;;;22.40;7.67;;;;;;;;;;5092937;28;20942;-69
2022/05/14 04:28:18;;;;;;;18.17;8.13;;;;;;;;;;5092815;28;20529;-69
2022/05/14 04:30:46;;;;;;;20.73;7.77;;;;;;;;;;5092751;28;20532;-70
2022/05/14 04:33:14;;;;;;;23.30;7.70;;;;;;;;;;5092598;28;20514;-70
2022/05/14 04:35:43;;;;;;;18.80;7.40;;;;;;;;;;5092951;28;20465;-69
2022/05/14 04:38:10;;;;;;;27.90;8.90;;;;;;;;;;5093097;28;20473;-69
2022/05/14 04:40:38;;;;;;;16.53;7.23;;;;;;;;;;5092857;28;20452;-69
2022/05/14 04:43:06;;;;;;;21.03;7.40;;;;;;;;;;5092613;28;20446;-69
2022/05/14 04:45:33;;;;;;;18.87;7.47;;;;;;;;;;5092396;28;20488;-69
2022/05/14 04:48:01;;;;;;;21.47;7.57;;;;;;;;;;5092525;28;20444;-70
2022/05/14 04:50:29;;;;;;;17.03;6.80;;;;;;;;;;5092456;28;20446;-69
2022/05/14 04:52:57;;;;;;;18.57;7.27;;;;;;;;;;5092809;28;20450;-70
2022/05/14 04:55:25;;;;;;;19.03;6.90;;;;;;;;;;5092184;28;20836;-70
2022/05/14 04:57:52;;;;;;;20.70;7.33;;;;;;;;;;5092617;28;20839;-70
2022/05/14 05:00:21;;;;;;;19.90;7.10;;;;;;;;;;5092328;28;20485;-70
2022/05/14 05:05:34;;;;;;;17.70;6.83;;;;;;;;;;5092244;28;20576;-70
2022/05/14 05:08:03;;;;;;;16.30;6.97;;;;;;;;;;5085472;28;20873;-70
2022/05/14 05:10:31;;;;;;;16.60;6.27;;;;;;;;;;5092281;28;20948;-70
2022/05/14 05:12:58;;;;;;;16.60;6.03;;;;;;;;;;5092163;28;20441;-70
2022/05/14 05:15:26;;;;;;;24.20;8.03;;;;;;;;;;5091902;28;20446;-70
2022/05/14 05:17:54;;;;;;;16.70;6.07;;;;;;;;;;5092245;28;20454;-70
2022/05/14 05:20:21;;;;;;;17.53;6.50;;;;;;;;;;5092245;28;20503;-69
2022/05/14 05:22:49;;;;;;;21.20;7.37;;;;;;;;;;5092058;28;20452;-69
2022/05/14 05:25:18;;;;;;;18.07;7.40;;;;;;;;;;5091686;28;20467;-70
2022/05/14 05:27:46;;;;;;;20.43;7.60;;;;;;;;;;5091539;28;20476;-69
2022/05/14 05:30:13;;;;;;;18.10;6.83;;;;;;;;;;5091788;28;20461;-70
2022/05/14 05:32:41;;;;;;;18.90;7.67;;;;;;;;;;5092204;28;20820;-70
2022/05/14 05:35:10;;;;;;;23.93;8.00;;;;;;;;;;5091579;28;20514;-70
2022/05/14 05:37:37;;;;;;;20.07;7.50;;;;;;;;;;5091511;28;20560;-70
2022/05/14 05:40:05;;;;;;;19.40;7.37;;;;;;;;;;5091577;28;20481;-70
2022/05/14 05:42:34;;;;;;;19.23;7.33;;;;;;;;;;5091618;28;20454;-70
2022/05/14 05:45:01;;;;;;;20.30;7.33;;;;;;;;;;5091963;28;20457;-70
2022/05/14 05:47:29;;;;;;;17.73;6.10;;;;;;;;;;5091385;28;20453;-70
2022/05/14 05:49:57;;;;;;;16.07;6.20;;;;;;;;;;5092102;28;20462;-70
2022/05/14 05:52:24;;;;;;;18.00;6.77;;;;;;;;;;5091684;28;20456;-70
2022/05/14 05:57:39;;;;;;;20.27;5.73;;;;;;;;;;5086231;28;20425;-71
2022/05/14 06:00:10;;;;;;;16.83;5.50;;;;;;;;;;5091479;28;20492;-71
2022/05/14 06:02:37;;;;;;;15.73;5.30;;;;;;;;;;5091631;28;20434;-71
2022/05/14 06:05:07;;;;;;;15.73;4.80;;;;;;;;;;5084696;28;20447;-70
2022/05/14 06:07:34;;;;;;;16.40;7.03;;;;;;;;;;5091148;28;20462;-70
2022/05/14 06:10:02;;;;;;;18.80;4.70;;;;;;;;;;5091710;28;20887;-70
2022/05/14 06:12:30;;;;;;;17.20;5.13;;;;;;;;;;5091746;28;20460;-70
2022/05/14 06:14:59;;;;;;;15.30;4.80;;;;;;;;;;5091696;28;20445;-70
2022/05/14 06:17:26;;;;;;;15.60;4.53;;;;;;;;;;5091126;28;20820;-70
2022/05/14 06:19:54;;;;;;;15.00;4.33;;;;;;;;;;5091360;28;20487;-70
2022/05/14 06:22:22;;;;;;;14.50;4.20;;;;;;;;;;5091367;28;20583;-72
2022/05/14 06:24:50;;;;;;;15.00;4.30;;;;;;;;;;5091558;28;20835;-71
2022/05/14 06:27:18;;;;;;;15.00;4.23;;;;;;;;;;5090926;28;20495;-71
2022/05/14 06:29:46;;;;;;;15.50;4.47;;;;;;;;;;5091343;28;20461;-70
2022/05/14 06:32:15;;;;;;;14.87;4.03;;;;;;;;;;5091429;28;20442;-71
2022/05/14 06:34:42;;;;;;;14.63;3.80;;;;;;;;;;5091305;28;20446;-70
2022/05/14 06:37:09;;;;;;;14.80;3.73;;;;;;;;;;5091327;28;20556;-71
2022/05/14 06:39:37;;;;;;;16.87;4.00;;;;;;;;;;5091122;28;20503;-70
2022/05/14 06:42:05;;;;;;;17.93;4.53;;;;;;;;;;5091173;28;20948;-70
2022/05/14 06:44:33;;;;;;;17.93;4.80;;;;;;;;;;5091329;28;20452;-70
2022/05/14 06:47:01;;;;;;;15.60;4.07;;;;;;;;;;5092586;28;20446;-70
2022/05/14 06:49:30;;;;;;;28.10;6.10;;;;;;;;;;5094840;28;20525;-70
2022/05/14 06:51:59;;;;;;;15.57;4.93;;;;;;;;;;5088633;28;20478;-71
2022/05/14 06:54:27;;;;;;;16.50;4.57;;;;;;;;;;5094847;28;20452;-70
2022/05/14 06:56:55;;;;;;;14.90;4.43;;;;;;;;;;5094654;28;20458;-71
2022/05/14 06:59:22;;;;;;;16.33;4.53;;;;;;;;;;5094412;28;20478;-71
2022/05/14 07:01:50;;;;;;;16.00;4.97;;;;;;;;;;5094456;28;20953;-71
2022/05/14 07:07:05;;;;;;;18.23;4.70;;;;;;;;;;5094739;28;20459;-71
2022/05/14 07:09:33;;;;;;;16.43;4.73;;;;;;;;;;5094366;28;20450;-71
2022/05/14 07:12:03;;;;;;;14.70;4.50;;;;;;;;;;5094361;28;20447;-71
2022/05/14 07:14:31;;;;;;;15.20;4.43;;;;;;;;;;5094662;28;20457;-71
2022/05/14 07:16:58;;;;;;;18.47;5.13;;;;;;;;;;5094297;28;20983;-71
2022/05/14 07:19:26;;;;;;;16.90;5.17;;;;;;;;;;5094008;28;20482;-71
2022/05/14 07:21:54;;;;;;;14.73;4.53;;;;;;;;;;5094333;28;20534;-71
2022/05/14 07:24:25;;;;;;;19.70;6.23;;;;;;;;;;5094303;28;20452;-71
2022/05/14 07:26:53;;;;;;;16.00;5.27;;;;;;;;;;5087123;28;20483;-71
2022/05/14 07:29:22;;;;;;;15.50;4.90;;;;;;;;;;5094046;28;20445;-71
2022/05/14 07:31:49;;;;;;;15.77;5.40;;;;;;;;;;5094207;28;20455;-71
2022/05/14 07:34:17;;;;;;;16.90;5.17;;;;;;;;;;5093985;28;20459;-71
2022/05/14 07:36:48;;;;;;;16.40;4.80;;;;;;;;;;5093615;28;20494;-71
2022/05/14 07:39:15;;;;;;;16.50;5.57;;;;;;;;;;5094064;28;20450;-72
2022/05/14 07:41:45;;;;;;;15.47;5.23;;;;;;;;;;5094018;28;20450;-70
2022/05/14 07:44:13;;;;;;;16.60;5.60;;;;;;;;;;5093703;28;20483;-70
2022/05/14 07:46:41;;;;;;;17.03;5.30;;;;;;;;;;5093802;28;20537;-70
2022/05/14 07:49:11;;;;;;;18.70;5.13;;;;;;;;;;5093938;28;20454;-71
2022/05/14 07:51:39;;;;;;;18.10;5.60;;;;;;;;;;5093300;28;20450;-71
2022/05/14 07:54:06;;;;;;;20.53;5.27;;;;;;;;;;5093543;28;20462;-71
2022/05/14 07:56:34;;;;;;;15.20;4.50;;;;;;;;;;5093630;28;20449;-71
2022/05/14 07:59:03;;;;;;;14.90;4.77;;;;;;;;;;5093432;28;20527;-71
2022/05/14 08:01:30;;;;;;;15.23;4.20;;;;;;;;;;5093057;28;20538;-70
2022/05/14 08:03:58;;;;;;;14.97;3.90;;;;;;;;;;5093442;28;20452;-72
2022/05/14 08:06:26;;;;;;;13.80;3.90;;;;;;;;;;5093330;28;20441;-71
2022/05/14 08:08:54;;;;;;;15.57;4.07;;;;;;;;;;5093565;28;20444;-71
2022/05/14 08:11:22;;;;;;;16.20;4.30;;;;;;;;;;5093158;28;20958;-72
2022/05/14 08:13:50;;;;;;;13.30;3.30;;;;;;;;;;5093191;28;20958;-72
2022/05/14 08:16:19;;;;;;;14.67;3.40;;;;;;;;;;5093220;28;20968;-72
2022/05/14 08:18:47;;;;;;;14.43;3.63;;;;;;;;;;5093126;28;20453;-72
2022/05/14 08:26:44;;;;;;;16.00;4.47;;;;;;;;;;5092840;28;20477;-72
2022/05/14 08:29:12;;;;;;;17.93;4.87;;;;;;;;;;5092834;28;20445;-72
2022/05/14 08:31:41;;;;;;;18.33;4.83;;;;;;;;;;5092923;28;21019;-72
2022/05/14 08:34:08;;;;;;;13.93;4.30;;;;;;;;;;5093222;28;20487;-72
2022/05/14 08:36:36;;;;;;;16.27;4.63;;;;;;;;;;5092390;28;20888;-72
2022/05/14 08:39:04;;;;;;;19.20;5.80;;;;;;;;;;5092768;28;20455;-72
2022/05/14 08:41:34;;;;;;;16.30;5.07;;;;;;;;;;5092472;28;20869;-72
2022/05/14 08:44:05;;;;;;;21.53;5.30;;;;;;;;;;5092631;28;20961;-71
2022/05/14 08:46:34;;;;;;;16.03;4.30;;;;;;;;;;5093022;28;20462;-71
2022/05/14 08:49:06;;;;;;;14.70;4.40;;;;;;;;;;5092470;28;20496;-72
2022/05/14 08:51:36;;;;;;;21.33;5.40;;;;;;;;;;5092487;28;20536;-72
2022/05/14 08:54:04;;;;;;;17.07;5.50;;;;;;;;;;5092591;28;20463;-72
2022/05/14 08:56:40;;;;;;;19.27;5.40;;;;;;;;;;5092870;28;20457;-72
2022/05/14 08:59:20;;;;;;;18.90;5.00;;;;;;;;;;5092862;28;20448;-72
2022/05/14 09:01:48;;;;;;;16.90;4.50;;;;;;;;;;5092551;28;20499;-72
2022/05/14 09:04:20;;;;;;;21.70;6.07;;;;;;;;;;5092393;28;20539;-72
2022/05/14 09:06:50;;;;;;;15.40;5.50;;;;;;;;;;5092140;28;20448;-72
2022/05/14 09:09:19;;;;;;;15.87;5.10;;;;;;;;;;5091364;28;20934;-72
2022/05/14 09:11:53;;;;;;;16.07;5.40;;;;;;;;;;5092320;28;20835;-72
2022/05/14 09:14:23;;;;;;;16.70;4.90;;;;;;;;;;5092126;28;20457;-72
2022/05/14 09:16:51;;;;;;;15.23;4.80;;;;;;;;;;5092089;28;20451;-72
2022/05/14 09:19:24;;;;;;;15.90;4.00;;;;;;;;;;5091751;28;20533;-72
2022/05/14 09:21:53;;;;;;;18.73;5.20;;;;;;;;;;5091986;28;20568;-72
2022/05/14 09:24:25;;;;;;;20.30;5.20;;;;;;;;;;5092091;28;20801;-72
2022/05/14 09:26:53;;;;;;;17.40;4.57;;;;;;;;;;5091678;28;21001;-72
2022/05/14 09:29:25;;;;;;;15.93;5.50;;;;;;;;;;5091588;28;20452;-72
2022/05/14 09:31:54;;;;;;;16.53;4.73;;;;;;;;;;5091873;28;20451;-72
2022/05/14 09:34:24;;;;;;;16.63;4.37;;;;;;;;;;5092007;28;20447;-72
2022/05/14 09:36:52;;;;;;;16.73;5.33;;;;;;;;;;5092129;28;21290;-71
2022/05/14 09:39:20;;;;;;;16.97;5.20;;;;;;;;;;5091679;28;20440;-72
2022/05/14 09:41:51;;;;;;;17.33;5.00;;;;;;;;;;5091698;28;20485;-71
2022/05/14 09:44:22;;;;;;;16.57;4.80;;;;;;;;;;5091670;28;20445;-72
2022/05/14 09:46:49;;;;;;;17.63;4.80;;;;;;;;;;5092069;28;20526;-72
2022/05/14 09:49:23;;;;;;;16.10;5.27;;;;;;;;;;5091476;28;20824;-72
2022/05/14 09:51:53;;;;;;;15.93;5.03;;;;;;;;;;5091747;28;20456;-72
2022/05/14 09:54:23;;;;;;;19.20;5.77;;;;;;;;;;5091856;28;20803;-72
2022/05/14 09:57:03;;;;;;;17.77;5.57;;;;;;;;;;5085171;28;20491;-72
2022/05/14 09:59:36;;;;;;;19.13;5.37;;;;;;;;;;5085939;28;20455;-72
2022/05/14 10:02:14;;;;;;;16.13;5.10;;;;;;;;;;5091635;28;20483;-72
2022/05/14 10:04:49;;;;;;;19.60;5.47;;;;;;;;;;5091829;28;20516;-72
2022/05/14 10:07:20;;;;;;;16.90;5.13;;;;;;;;;;5091304;28;20455;-73
2022/05/14 10:09:56;;;;;;;14.97;5.20;;;;;;;;;;5091909;28;20444;-72
2022/05/14 10:12:28;;;;;;;18.67;5.27;;;;;;;;;;5091869;28;20471;-72
2022/05/14 10:15:01;;;;;;;15.50;5.27;;;;;;;;;;5091705;28;20990;-72
2022/05/14 10:17:38;;;;;;;16.10;5.03;;;;;;;;;;5091239;28;20444;-72
2022/05/14 10:20:26;;;;;;;18.03;5.10;;;;;;;;;;5092048;28;20478;-72
2022/05/14 10:28:51;;;;;;;15.30;5.40;;;;;;;;;;5095040;28;20606;-72
2022/05/14 10:31:24;;;;;;;16.20;4.97;;;;;;;;;;5094972;28;20957;-72
2022/05/14 10:33:52;;;;;;;14.97;5.20;;;;;;;;;;5095243;28;20454;-72
2022/05/14 10:36:25;;;;;;;15.43;4.80;;;;;;;;;;5095192;28;20481;-72
2022/05/14 10:39:03;;;;;;;15.80;4.80;;;;;;;;;;5095035;28;20536;-71
2022/05/14 10:41:33;;;;;;;16.60;5.87;;;;;;;;;;5094861;28;20488;-72
2022/05/14 10:44:02;;;;;;;18.10;5.73;;;;;;;;;;5095009;28;20510;-72
2022/05/14 10:46:30;;;;;;;16.40;5.67;;;;;;;;;;5095050;28;20434;-72
2022/05/14 10:49:01;;;;;;;17.30;5.13;;;;;;;;;;5094749;28;20446;-72
2022/05/14 10:51:30;;;;;;;14.67;4.87;;;;;;;;;;5094639;28;20451;-72
2022/05/14 10:54:00;;;;;;;22.50;5.87;;;;;;;;;;5095063;28;20446;-72
2022/05/14 10:56:29;;;;;;;15.97;5.13;;;;;;;;;;5094983;28;20851;-72
2022/05/14 10:59:02;;;;;;;16.90;5.80;;;;;;;;;;5094758;28;20453;-72
2022/05/14 11:01:31;;;;;;;18.97;5.40;;;;;;;;;;5094301;28;20486;-71
2022/05/14 11:03:59;;;;;;;16.87;5.83;;;;;;;;;;5094569;28;20446;-71
2022/05/14 11:06:31;;;;;;;17.50;5.20;;;;;;;;;;5094471;28;20484;-71
2022/05/14 11:09:00;;;;;;;18.43;5.50;;;;;;;;;;5094569;28;20528;-71
2022/05/14 11:11:29;;;;;;;15.77;5.60;;;;;;;;;;5094278;28;20463;-72
2022/05/14 11:13:59;;;;;;;17.60;5.17;;;;;;;;;;5094305;28;20459;-72
2022/05/14 11:16:36;;;;;;;15.40;5.57;;;;;;;;;;5094657;28;20453;-72
2022/05/14 11:19:07;;;;;;;17.27;5.37;;;;;;;;;;5094287;28;20454;-72
2022/05/14 11:21:36;;;;;;;18.40;5.03;;;;;;;;;;5094045;28;20486;-72
2022/05/14 11:24:05;;;;;;;15.80;5.20;;;;;;;;;;5094146;28;20478;-71
2022/05/14 11:26:33;;;;;;;17.77;5.43;;;;;;;;;;5094135;28;20960;-71
2022/05/14 11:29:02;;;;;;;15.40;5.50;;;;;;;;;;5094046;28;21051;-72
2022/05/14 11:31:31;;;;;;;14.97;4.83;;;;;;;;;;5093636;28;20457;-71
2022/05/14 11:34:00;;;;;;;15.97;5.27;;;;;;;;;;5093645;28;20827;-71
2022/05/14 11:36:29;;;;;;;17.43;5.50;;;;;;;;;;5094168;28;20508;-71
2022/05/14 11:39:11;;;;;;;17.30;5.80;;;;;;;;;;5093745;28;20462;-71
2022/05/14 11:41:41;;;;;;;16.37;5.47;;;;;;;;;;5093739;28;20484;-71
2022/05/14 11:44:08;;;;;;;16.00;6.07;;;;;;;;;;5093961;28;20472;-71
2022/05/14 11:46:41;;;;;;;16.00;6.07;;;;;;;;;;5093768;28;20452;-73
2022/05/14 11:49:12;;;;;;;20.93;6.80;;;;;;;;;;5093751;28;20456;-71
2022/05/14 11:51:43;;;;;;;20.17;7.10;;;;;;;;;;5093686;28;20448;-73
2022/05/14 11:54:16;;;;;;;16.40;5.17;;;;;;;;;;5093892;28;20438;-71
2022/05/14 11:56:48;;;;;;;21.90;6.40;;;;;;;;;;5093770;28;20449;-71
2022/05/14 11:59:18;;;;;;;16.17;5.70;;;;;;;;;;5093327;28;21045;-72
2022/05/14 12:01:47;;;;;;;15.33;5.80;;;;;;;;;;5093367;28;20481;-71
2022/05/14 12:04:17;;;;;;;18.40;6.50;;;;;;;;;;5093630;28;20454;-72
2022/05/14 12:06:54;;;;;;;20.00;7.27;;;;;;;;;;5093835;28;20469;-72
2022/05/14 12:09:31;;;;;;;17.63;6.13;;;;;;;;;;5093344;28;20528;-71
2022/05/14 12:12:04;;;;;;;18.63;6.93;;;;;;;;;;5093344;28;20453;-71
2022/05/14 12:14:32;;;;;;;23.00;7.20;;;;;;;;;;5093223;28;20982;-71
2022/05/14 12:17:00;;;;;;;16.30;6.70;;;;;;;;;;5093110;28;20453;-71
2022/05/14 12:19:28;;;;;;;21.23;6.83;;;;;;;;;;5092859;28;20446;-71
2022/05/14 12:21:57;;;;;;;21.73;7.30;;;;;;;;;;5093227;28;20512;-71
2022/05/14 12:24:27;;;;;;;20.23;7.10;;;;;;;;;;5093056;28;20476;-72
2022/05/14 12:26:56;;;;;;;18.30;7.13;;;;;;;;;;5092351;28;20450;-72
2022/05/14 12:29:27;;;;;;;20.20;6.57;;;;;;;;;;5093050;28;20454;-73
2022/05/14 12:34:43;;;;;;;18.60;6.77;;;;;;;;;;5095892;28;20824;-70
2022/05/14 12:37:19;;;;;;;20.40;6.57;;;;;;;;;;5095130;28;21029;-73
2022/05/14 12:39:48;;;;;;;17.67;6.73;;;;;;;;;;5103081;28;20536;-73
2022/05/14 12:42:20;;;;;;;21.10;7.53;;;;;;;;;;5095240;28;20481;-73
2022/05/14 12:44:51;;;;;;;17.80;6.60;;;;;;;;;;5095741;28;20457;-73
2022/05/14 12:47:23;;;;;;;17.57;6.13;;;;;;;;;;5097920;28;20446;-71
2022/05/14 12:49:50;;;;;;;16.80;6.60;;;;;;;;;;5086371;28;21016;-72
2022/05/14 12:52:19;;;;;;;20.00;7.43;;;;;;;;;;5092587;28;20461;-74
2022/05/14 12:54:51;;;;;;;20.20;6.23;;;;;;;;;;5092432;28;20452;-72
2022/05/14 12:57:21;;;;;;;16.90;6.33;;;;;;;;;;5092144;28;20859;-70
2022/05/14 12:59:48;;;;;;;18.10;6.70;;;;;;;;;;5086222;28;20435;-70
2022/05/14 13:02:18;;;;;;;19.60;6.43;;;;;;;;;;5084332;28;20481;-71
2022/05/14 13:04:51;;;;;;;20.57;6.70;;;;;;;;;;5083555;28;20439;-69
2022/05/14 13:07:19;;;;;;;20.93;8.30;;;;;;;;;;5083863;28;20446;-69
2022/05/14 13:09:47;;;;;;;16.90;6.40;;;;;;;;;;5091324;28;20450;-71
2022/05/14 13:12:19;;;;;;;19.00;6.50;;;;;;;;;;5093926;28;20870;-70
2022/05/14 13:14:54;;;;;;;17.63;6.40;;;;;;;;;;5094221;28;20437;-69
2022/05/14 13:17:23;;;;;;;16.90;6.53;;;;;;;;;;5095502;28;20460;-72
2022/05/14 13:19:56;;;;;;;17.27;6.60;;;;;;;;;;5096771;28;20837;-73
2022/05/14 13:22:29;;;;;;;21.07;7.70;;;;;;;;;;5096909;28;21034;-70
2022/05/14 13:24:57;;;;;;;16.33;6.70;;;;;;;;;;5096969;28;20814;-70
2022/05/14 13:27:30;;;;;;;17.30;6.57;;;;;;;;;;5091566;28;20466;-70
2022/05/14 13:30:02;;;;;;;18.93;7.30;;;;;;;;;;5091343;28;20456;-71
2022/05/14 13:32:31;;;;;;;18.20;7.20;;;;;;;;;;5101741;28;20452;-69
2022/05/14 13:37:54;;;;;;;18.33;7.17;;;;;;;;;;5093660;28;20480;-71
2022/05/14 13:40:23;;;;;;;20.43;7.03;;;;;;;;;;5096263;28;20446;-71
2022/05/14 13:42:51;;;;;;;16.90;6.60;;;;;;;;;;5097247;28;20485;-71
2022/05/14 13:45:24;;;;;;;17.10;6.67;;;;;;;;;;5096258;28;20853;-71
2022/05/14 13:47:53;;;;;;;16.10;6.13;;;;;;;;;;5091776;28;20447;-70
2022/05/14 13:50:24;;;;;;;17.80;7.13;;;;;;;;;;5091858;28;20461;-73
2022/05/14 13:52:53;;;;;;;18.43;6.70;;;;;;;;;;5085852;28;20858;-73
2022/05/14 13:55:29;;;;;;;20.20;7.10;;;;;;;;;;5085298;28;20450;-73
2022/05/14 13:57:58;;;;;;;18.47;6.73;;;;;;;;;;5089296;28;20456;-73
2022/05/14 14:00:27;;;;;;;23.73;7.40;;;;;;;;;;5094839;28;20453;-74
2022/05/14 14:03:01;;;;;;;23.67;8.50;;;;;;;;;;5095855;28;20482;-72
2022/05/14 14:05:29;;;;;;;17.80;7.10;;;;;;;;;;5095394;28;20834;-73
2022/05/14 14:07:57;;;;;;;18.20;6.83;;;;;;;;;;5095717;28;20468;-73
2022/05/14 14:10:33;;;;;;;19.70;7.23;;;;;;;;;;5095652;28;20456;-73
2022/05/14 14:13:00;;;;;;;16.83;6.23;;;;;;;;;;5095474;28;20522;-75
2022/05/14 14:15:30;;;;;;;18.73;6.63;;;;;;;;;;5098278;28;20453;-76
2022/05/14 14:17:58;;;;;;;18.97;6.03;;;;;;;;;;5095789;28;20452;-73
2022/05/14 14:20:26;;;;;;;16.97;5.60;;;;;;;;;;5095400;28;20975;-74
2022/05/14 14:22:54;;;;;;;20.80;6.10;;;;;;;;;;5095468;28;20477;-74
2022/05/14 14:25:22;;;;;;;18.07;6.13;;;;;;;;;;5094969;28;20529;-74
2022/05/14 14:27:50;;;;;;;22.13;6.20;;;;;;;;;;5095518;28;20462;-74
2022/05/14 14:30:17;;;;;;;19.53;6.03;;;;;;;;;;5094660;28;20438;-74
2022/05/14 14:32:46;;;;;;;17.03;5.50;;;;;;;;;;5095149;28;20445;-74
2022/05/14 14:35:14;;;;;;;20.40;6.43;;;;;;;;;;5094923;28;20829;-74
2022/05/14 14:37:42;;;;;;;20.53;6.73;;;;;;;;;;5095233;28;20477;-74
2022/05/14 14:40:11;;;;;;;16.93;6.30;;;;;;;;;;5094799;28;20453;-75
2022/05/14 14:42:39;;;;;;;18.37;5.67;;;;;;;;;;5094909;28;20522;-74
2022/05/14 14:45:10;;;;;;;17.90;6.67;;;;;;;;;;5096532;28;20529;-75
2022/05/14 14:47:38;;;;;;;24.20;6.53;;;;;;;;;;5094875;28;20473;-74
2022/05/14 14:50:08;;;;;;;21.20;6.60;;;;;;;;;;5094848;28;20995;-74
2022/05/14 14:52:35;;;;;;;17.23;6.00;;;;;;;;;;5094582;28;20515;-74
2022/05/14 14:55:04;;;;;;;16.80;5.60;;;;;;;;;;5094975;28;20452;-75
2022/05/14 14:57:32;;;;;;;18.07;5.90;;;;;;;;;;5087702;28;20461;-74
2022/05/14 14:59:59;;;;;;;21.60;4.73;;;;;;;;;;5094174;28;20458;-74
2022/05/14 15:02:31;;;;;;;17.20;5.10;;;;;;;;;;5094444;28;21032;-74
2022/05/14 15:05:02;;;;;;;15.87;5.40;;;;;;;;;;5094653;28;20532;-74
2022/05/14 15:07:31;;;;;;;16.73;5.50;;;;;;;;;;5093694;28;20813;-74
2022/05/14 15:09:59;;;;;;;17.70;5.70;;;;;;;;;;5094415;28;20982;-74